sensor_id;sensor_type;location;lat;lon;timestamp;P1;durP1;ratioP1;P2;durP2;ratioP2
3369;SDS011;42042;51.948;7.628;2022-08-21T00:01:37;6.20;;;4.50;;
3369;SDS011;42042;51.948;7.628;2022-08-21T00:04:04;8.47;;;4.70;;
3369;SDS011;42042;51.948;7.628;2022-08-21T00:06:32;10.80;;;4.40;;
3369;SDS011;42042;51.948;7.628;2022-08-21T00:08:59;5.97;;;4.30;;
3369;SDS011;42042;51.948;7.628;2022-08-21T00:11:28;9.97;;;5.10;;
3369;SDS011;42042;51.948;7.628;2022-08-21T00:13:55;8.60;;;5.80;;
3369;SDS011;42042;51.948;7.628;2022-08-21T00:16:23;7.70;;;6.90;;
3369;SDS011;42042;51.948;7.628;2022-08-21T00:18:50;10.60;;;7.33;;
3369;SDS011;42042;51.948;7.628;2022-08-21T00:21:17;7.33;;;6.33;;
3369;SDS011;42042;51.948;7.628;2022-08-21T00:23:44;8.23;;;5.47;;
3369;SDS011;42042;51.948;7.628;2022-08-21T00:26:12;8.17;;;5.97;;
3369;SDS011;42042;51.948;7.628;2022-08-21T00:28:40;7.70;;;5.90;;
3369;SDS011;42042;51.948;7.628;2022-08-21T00:31:08;14.73;;;6.60;;
3369;SDS011;42042;51.948;7.628;2022-08-21T00:33:36;11.43;;;6.53;;
3369;SDS011;42042;51.948;7.628;2022-08-21T00:36:03;9.77;;;5.93;;
3369;SDS011;42042;51.948;7.628;2022-08-21T00:38:30;12.00;;;5.60;;
3369;SDS011;42042;51.948;7.628;2022-08-21T00:40:58;8.87;;;5.30;;
3369;SDS011;42042;51.948;7.628;2022-08-21T00:43:28;12.50;;;5.53;;
3369;SDS011;42042;51.948;7.628;2022-08-21T00:45:57;10.13;;;6.30;;
3369;SDS011;42042;51.948;7.628;2022-08-21T00:48:25;10.70;;;6.90;;
3369;SDS011;42042;51.948;7.628;2022-08-21T00:50:54;13.00;;;6.20;;
3369;SDS011;42042;51.948;7.628;2022-08-21T00:53:22;12.17;;;6.50;;
3369;SDS011;42042;51.948;7.628;2022-08-21T00:55:50;15.67;;;6.50;;
3369;SDS011;42042;51.948;7.628;2022-08-21T00:58:18;10.40;;;5.70;;
3369;SDS011;42042;51.948;7.628;2022-08-21T01:00:46;7.03;;;5.40;;
3369;SDS011;42042;51.948;7.628;2022-08-21T01:03:16;10.80;;;6.70;;
3369;SDS011;42042;51.948;7.628;2022-08-21T01:05:44;7.90;;;5.60;;
3369;SDS011;42042;51.948;7.628;2022-08-21T01:08:12;12.40;;;7.00;;
3369;SDS011;42042;51.948;7.628;2022-08-21T01:10:40;11.40;;;7.27;;
3369;SDS011;42042;51.948;7.628;2022-08-21T01:13:08;9.30;;;6.10;;
3369;SDS011;42042;51.948;7.628;2022-08-21T01:15:37;11.43;;;6.00;;
3369;SDS011;42042;51.948;7.628;2022-08-21T01:18:07;10.90;;;7.07;;
3369;SDS011;42042;51.948;7.628;2022-08-21T01:20:37;10.20;;;6.87;;
3369;SDS011;42042;51.948;7.628;2022-08-21T01:23:06;7.87;;;7.07;;
3369;SDS011;42042;51.948;7.628;2022-08-21T01:25:34;12.33;;;6.83;;
3369;SDS011;42042;51.948;7.628;2022-08-21T01:28:02;9.87;;;6.20;;
3369;SDS011;42042;51.948;7.628;2022-08-21T01:30:31;12.00;;;6.90;;
3369;SDS011;42042;51.948;7.628;2022-08-21T01:33:01;9.20;;;6.30;;
3369;SDS011;42042;51.948;7.628;2022-08-21T01:35:28;14.90;;;6.00;;
3369;SDS011;42042;51.948;7.628;2022-08-21T01:37:56;11.97;;;6.87;;
3369;SDS011;42042;51.948;7.628;2022-08-21T01:40:24;10.23;;;6.50;;
3369;SDS011;42042;51.948;7.628;2022-08-21T01:42:52;11.30;;;6.13;;
3369;SDS011;42042;51.948;7.628;2022-08-21T01:45:19;10.10;;;5.97;;
3369;SDS011;42042;51.948;7.628;2022-08-21T01:47:46;9.50;;;6.67;;
3369;SDS011;42042;51.948;7.628;2022-08-21T01:50:14;14.87;;;6.90;;
3369;SDS011;42042;51.948;7.628;2022-08-21T01:52:42;13.07;;;5.67;;
3369;SDS011;42042;51.948;7.628;2022-08-21T01:55:10;14.00;;;5.70;;
3369;SDS011;42042;51.948;7.628;2022-08-21T01:57:39;10.83;;;5.97;;
3369;SDS011;42042;51.948;7.628;2022-08-21T02:00:07;12.60;;;5.80;;
3369;SDS011;42042;51.948;7.628;2022-08-21T02:02:35;9.13;;;5.10;;
3369;SDS011;42042;51.948;7.628;2022-08-21T02:05:03;9.60;;;5.77;;
3369;SDS011;42042;51.948;7.628;2022-08-21T02:07:35;9.77;;;6.67;;
3369;SDS011;42042;51.948;7.628;2022-08-21T02:10:03;15.43;;;6.13;;
3369;SDS011;42042;51.948;7.628;2022-08-21T02:12:31;14.27;;;5.90;;
3369;SDS011;42042;51.948;7.628;2022-08-21T02:15:00;8.67;;;5.77;;
3369;SDS011;42042;51.948;7.628;2022-08-21T02:17:27;8.77;;;5.00;;
3369;SDS011;42042;51.948;7.628;2022-08-21T02:19:54;14.27;;;5.73;;
3369;SDS011;42042;51.948;7.628;2022-08-21T02:22:21;13.37;;;5.20;;
3369;SDS011;42042;51.948;7.628;2022-08-21T02:24:48;6.83;;;4.90;;
3369;SDS011;42042;51.948;7.628;2022-08-21T02:27:16;12.00;;;5.87;;
3369;SDS011;42042;51.948;7.628;2022-08-21T02:29:43;7.40;;;5.90;;
3369;SDS011;42042;51.948;7.628;2022-08-21T02:32:11;8.47;;;5.27;;
3369;SDS011;42042;51.948;7.628;2022-08-21T02:34:39;13.90;;;5.90;;
3369;SDS011;42042;51.948;7.628;2022-08-21T02:37:06;10.73;;;5.23;;
3369;SDS011;42042;51.948;7.628;2022-08-21T02:39:33;7.43;;;4.90;;
3369;SDS011;42042;51.948;7.628;2022-08-21T02:42:00;12.80;;;6.90;;
3369;SDS011;42042;51.948;7.628;2022-08-21T02:44:28;8.80;;;5.70;;
3369;SDS011;42042;51.948;7.628;2022-08-21T02:46:55;7.70;;;5.30;;
3369;SDS011;42042;51.948;7.628;2022-08-21T02:49:23;10.90;;;6.60;;
3369;SDS011;42042;51.948;7.628;2022-08-21T02:51:50;8.97;;;6.70;;
3369;SDS011;42042;51.948;7.628;2022-08-21T02:54:18;6.60;;;5.97;;
3369;SDS011;42042;51.948;7.628;2022-08-21T02:56:45;12.13;;;6.50;;
3369;SDS011;42042;51.948;7.628;2022-08-21T02:59:12;10.20;;;6.93;;
3369;SDS011;42042;51.948;7.628;2022-08-21T03:01:39;10.93;;;7.40;;
3369;SDS011;42042;51.948;7.628;2022-08-21T03:04:07;7.47;;;6.80;;
3369;SDS011;42042;51.948;7.628;2022-08-21T03:06:35;11.00;;;7.47;;
3369;SDS011;42042;51.948;7.628;2022-08-21T03:09:03;6.93;;;6.33;;
3369;SDS011;42042;51.948;7.628;2022-08-21T03:11:30;16.70;;;7.27;;
3369;SDS011;42042;51.948;7.628;2022-08-21T03:13:57;16.73;;;8.00;;
3369;SDS011;42042;51.948;7.628;2022-08-21T03:16:24;14.57;;;7.90;;
3369;SDS011;42042;51.948;7.628;2022-08-21T03:18:52;10.57;;;7.33;;
3369;SDS011;42042;51.948;7.628;2022-08-21T03:21:20;13.57;;;7.70;;
3369;SDS011;42042;51.948;7.628;2022-08-21T03:23:49;10.10;;;7.80;;
3369;SDS011;42042;51.948;7.628;2022-08-21T03:26:16;10.87;;;7.47;;
3369;SDS011;42042;51.948;7.628;2022-08-21T03:28:43;12.57;;;9.00;;
3369;SDS011;42042;51.948;7.628;2022-08-21T03:31:10;21.67;;;9.20;;
3369;SDS011;42042;51.948;7.628;2022-08-21T03:33:38;12.67;;;8.63;;
3369;SDS011;42042;51.948;7.628;2022-08-21T03:36:05;11.50;;;8.80;;
3369;SDS011;42042;51.948;7.628;2022-08-21T03:38:34;16.47;;;9.00;;
3369;SDS011;42042;51.948;7.628;2022-08-21T03:41:03;16.07;;;9.17;;
3369;SDS011;42042;51.948;7.628;2022-08-21T03:43:31;14.63;;;10.10;;
3369;SDS011;42042;51.948;7.628;2022-08-21T03:45:58;12.37;;;9.43;;
3369;SDS011;42042;51.948;7.628;2022-08-21T03:48:26;12.00;;;9.37;;
3369;SDS011;42042;51.948;7.628;2022-08-21T03:50:53;14.97;;;10.37;;
3369;SDS011;42042;51.948;7.628;2022-08-21T03:53:21;13.40;;;10.43;;
3369;SDS011;42042;51.948;7.628;2022-08-21T03:55:50;16.73;;;11.73;;
3369;SDS011;42042;51.948;7.628;2022-08-21T03:58:20;11.80;;;9.70;;
3369;SDS011;42042;51.948;7.628;2022-08-21T04:00:48;16.30;;;11.43;;
3369;SDS011;42042;51.948;7.628;2022-08-21T04:03:16;13.77;;;10.90;;
3369;SDS011;42042;51.948;7.628;2022-08-21T04:05:43;15.37;;;11.70;;
3369;SDS011;42042;51.948;7.628;2022-08-21T04:08:11;19.53;;;11.20;;
3369;SDS011;42042;51.948;7.628;2022-08-21T04:10:39;17.40;;;11.60;;
3369;SDS011;42042;51.948;7.628;2022-08-21T04:13:07;13.03;;;11.53;;
3369;SDS011;42042;51.948;7.628;2022-08-21T04:15:36;19.00;;;11.07;;
3369;SDS011;42042;51.948;7.628;2022-08-21T04:18:03;16.00;;;11.37;;
3369;SDS011;42042;51.948;7.628;2022-08-21T04:20:31;13.60;;;10.53;;
3369;SDS011;42042;51.948;7.628;2022-08-21T04:22:58;22.73;;;11.90;;
3369;SDS011;42042;51.948;7.628;2022-08-21T04:25:25;13.80;;;10.77;;
3369;SDS011;42042;51.948;7.628;2022-08-21T04:27:53;17.03;;;11.10;;
3369;SDS011;42042;51.948;7.628;2022-08-21T04:30:20;15.67;;;12.40;;
3369;SDS011;42042;51.948;7.628;2022-08-21T04:32:49;19.70;;;11.40;;
3369;SDS011;42042;51.948;7.628;2022-08-21T04:35:18;17.80;;;12.20;;
3369;SDS011;42042;51.948;7.628;2022-08-21T04:37:46;15.27;;;11.87;;
3369;SDS011;42042;51.948;7.628;2022-08-21T04:40:14;15.17;;;12.17;;
3369;SDS011;42042;51.948;7.628;2022-08-21T04:42:42;14.63;;;11.43;;
3369;SDS011;42042;51.948;7.628;2022-08-21T04:45:15;15.30;;;11.40;;
3369;SDS011;42042;51.948;7.628;2022-08-21T04:47:44;20.33;;;12.20;;
3369;SDS011;42042;51.948;7.628;2022-08-21T04:50:13;18.90;;;12.17;;
3369;SDS011;42042;51.948;7.628;2022-08-21T04:52:40;18.73;;;12.23;;
3369;SDS011;42042;51.948;7.628;2022-08-21T04:55:08;15.70;;;12.10;;
3369;SDS011;42042;51.948;7.628;2022-08-21T04:57:35;16.50;;;12.27;;
3369;SDS011;42042;51.948;7.628;2022-08-21T05:00:03;15.83;;;11.30;;
3369;SDS011;42042;51.948;7.628;2022-08-21T05:02:31;15.97;;;11.87;;
3369;SDS011;42042;51.948;7.628;2022-08-21T05:04:59;21.23;;;12.67;;
3369;SDS011;42042;51.948;7.628;2022-08-21T05:07:28;18.10;;;12.90;;
3369;SDS011;42042;51.948;7.628;2022-08-21T05:09:56;15.27;;;12.90;;
3369;SDS011;42042;51.948;7.628;2022-08-21T05:12:23;19.67;;;12.53;;
3369;SDS011;42042;51.948;7.628;2022-08-21T05:14:51;14.23;;;11.87;;
3369;SDS011;42042;51.948;7.628;2022-08-21T05:17:18;14.13;;;11.20;;
3369;SDS011;42042;51.948;7.628;2022-08-21T05:19:46;15.50;;;11.20;;
3369;SDS011;42042;51.948;7.628;2022-08-21T05:22:18;14.93;;;12.43;;
3369;SDS011;42042;51.948;7.628;2022-08-21T05:24:47;13.60;;;11.90;;
3369;SDS011;42042;51.948;7.628;2022-08-21T05:27:14;12.70;;;11.43;;
3369;SDS011;42042;51.948;7.628;2022-08-21T05:29:41;17.40;;;11.50;;
3369;SDS011;42042;51.948;7.628;2022-08-21T05:32:09;17.10;;;12.80;;
3369;SDS011;42042;51.948;7.628;2022-08-21T05:34:36;15.73;;;11.03;;
3369;SDS011;42042;51.948;7.628;2022-08-21T05:37:04;21.23;;;11.80;;
3369;SDS011;42042;51.948;7.628;2022-08-21T05:39:31;14.83;;;11.10;;
3369;SDS011;42042;51.948;7.628;2022-08-21T05:42:00;12.43;;;11.03;;
3369;SDS011;42042;51.948;7.628;2022-08-21T05:44:27;13.60;;;11.00;;
3369;SDS011;42042;51.948;7.628;2022-08-21T05:46:54;13.13;;;11.53;;
3369;SDS011;42042;51.948;7.628;2022-08-21T05:49:21;13.80;;;11.50;;
3369;SDS011;42042;51.948;7.628;2022-08-21T05:51:49;11.67;;;10.53;;
3369;SDS011;42042;51.948;7.628;2022-08-21T05:54:16;12.40;;;11.10;;
3369;SDS011;42042;51.948;7.628;2022-08-21T05:56:43;16.30;;;10.27;;
3369;SDS011;42042;51.948;7.628;2022-08-21T05:59:12;16.50;;;11.70;;
3369;SDS011;42042;51.948;7.628;2022-08-21T06:01:39;20.10;;;12.40;;
3369;SDS011;42042;51.948;7.628;2022-08-21T06:04:06;18.43;;;10.20;;
3369;SDS011;42042;51.948;7.628;2022-08-21T06:06:33;12.37;;;10.40;;
3369;SDS011;42042;51.948;7.628;2022-08-21T06:09:01;12.93;;;10.13;;
3369;SDS011;42042;51.948;7.628;2022-08-21T06:11:28;12.33;;;10.50;;
3369;SDS011;42042;51.948;7.628;2022-08-21T06:13:56;15.87;;;12.00;;
3369;SDS011;42042;51.948;7.628;2022-08-21T06:16:25;17.20;;;11.00;;
3369;SDS011;42042;51.948;7.628;2022-08-21T06:18:54;18.40;;;11.23;;
3369;SDS011;42042;51.948;7.628;2022-08-21T06:21:21;15.93;;;11.77;;
3369;SDS011;42042;51.948;7.628;2022-08-21T06:23:49;15.50;;;11.00;;
3369;SDS011;42042;51.948;7.628;2022-08-21T06:26:16;13.73;;;10.43;;
3369;SDS011;42042;51.948;7.628;2022-08-21T06:28:43;11.63;;;10.50;;
3369;SDS011;42042;51.948;7.628;2022-08-21T06:31:12;14.20;;;10.37;;
3369;SDS011;42042;51.948;7.628;2022-08-21T06:33:41;15.20;;;10.77;;
3369;SDS011;42042;51.948;7.628;2022-08-21T06:36:08;11.43;;;9.57;;
3369;SDS011;42042;51.948;7.628;2022-08-21T06:38:35;15.63;;;10.67;;
3369;SDS011;42042;51.948;7.628;2022-08-21T06:41:03;12.13;;;9.73;;
3369;SDS011;42042;51.948;7.628;2022-08-21T06:43:30;25.10;;;11.43;;
3369;SDS011;42042;51.948;7.628;2022-08-21T06:45:58;15.23;;;10.17;;
3369;SDS011;42042;51.948;7.628;2022-08-21T06:48:25;12.10;;;8.83;;
3369;SDS011;42042;51.948;7.628;2022-08-21T06:50:53;13.97;;;8.07;;
3369;SDS011;42042;51.948;7.628;2022-08-21T06:53:21;9.20;;;8.30;;
3369;SDS011;42042;51.948;7.628;2022-08-21T06:55:48;10.20;;;8.53;;
3369;SDS011;42042;51.948;7.628;2022-08-21T06:58:15;12.73;;;8.50;;
3369;SDS011;42042;51.948;7.628;2022-08-21T07:00:46;9.57;;;8.17;;
3369;SDS011;42042;51.948;7.628;2022-08-21T07:03:17;10.43;;;8.50;;
3369;SDS011;42042;51.948;7.628;2022-08-21T07:05:45;10.47;;;7.20;;
3369;SDS011;42042;51.948;7.628;2022-08-21T07:08:13;12.67;;;6.77;;
3369;SDS011;42042;51.948;7.628;2022-08-21T07:10:41;14.47;;;7.77;;
3369;SDS011;42042;51.948;7.628;2022-08-21T07:13:08;14.13;;;9.50;;
3369;SDS011;42042;51.948;7.628;2022-08-21T07:15:36;15.43;;;6.93;;
3369;SDS011;42042;51.948;7.628;2022-08-21T07:18:03;8.33;;;6.20;;
3369;SDS011;42042;51.948;7.628;2022-08-21T07:20:30;6.50;;;5.67;;
3369;SDS011;42042;51.948;7.628;2022-08-21T07:22:59;12.57;;;6.30;;
3369;SDS011;42042;51.948;7.628;2022-08-21T07:25:28;14.43;;;6.00;;
3369;SDS011;42042;51.948;7.628;2022-08-21T07:27:56;6.50;;;5.60;;
3369;SDS011;42042;51.948;7.628;2022-08-21T07:30:23;7.30;;;5.67;;
3369;SDS011;42042;51.948;7.628;2022-08-21T07:32:51;7.30;;;6.00;;
3369;SDS011;42042;51.948;7.628;2022-08-21T07:35:18;8.97;;;6.47;;
3369;SDS011;42042;51.948;7.628;2022-08-21T07:37:46;11.50;;;6.67;;
3369;SDS011;42042;51.948;7.628;2022-08-21T07:40:13;12.20;;;6.27;;
3369;SDS011;42042;51.948;7.628;2022-08-21T07:42:42;7.80;;;6.33;;
3369;SDS011;42042;51.948;7.628;2022-08-21T07:45:09;10.33;;;6.93;;
3369;SDS011;42042;51.948;7.628;2022-08-21T07:47:37;11.63;;;7.63;;
3369;SDS011;42042;51.948;7.628;2022-08-21T07:50:05;8.67;;;6.50;;
3369;SDS011;42042;51.948;7.628;2022-08-21T07:52:32;8.23;;;7.43;;
3369;SDS011;42042;51.948;7.628;2022-08-21T07:54:59;11.60;;;6.77;;
3369;SDS011;42042;51.948;7.628;2022-08-21T07:57:27;10.93;;;7.43;;
3369;SDS011;42042;51.948;7.628;2022-08-21T07:59:55;12.47;;;7.07;;
3369;SDS011;42042;51.948;7.628;2022-08-21T08:02:23;13.70;;;8.00;;
3369;SDS011;42042;51.948;7.628;2022-08-21T08:04:50;10.80;;;6.93;;
3369;SDS011;42042;51.948;7.628;2022-08-21T08:07:18;12.90;;;7.10;;
3369;SDS011;42042;51.948;7.628;2022-08-21T08:09:45;12.13;;;7.47;;
3369;SDS011;42042;51.948;7.628;2022-08-21T08:12:12;13.93;;;7.90;;
3369;SDS011;42042;51.948;7.628;2022-08-21T08:14:40;12.40;;;8.03;;
3369;SDS011;42042;51.948;7.628;2022-08-21T08:17:09;12.60;;;8.13;;
3369;SDS011;42042;51.948;7.628;2022-08-21T08:19:36;10.73;;;8.00;;
3369;SDS011;42042;51.948;7.628;2022-08-21T08:22:11;14.10;;;8.63;;
3369;SDS011;42042;51.948;7.628;2022-08-21T08:24:39;10.13;;;7.97;;
3369;SDS011;42042;51.948;7.628;2022-08-21T08:27:06;10.47;;;8.67;;
3369;SDS011;42042;51.948;7.628;2022-08-21T08:29:33;18.57;;;9.80;;
3369;SDS011;42042;51.948;7.628;2022-08-21T08:32:01;14.40;;;9.90;;
3369;SDS011;42042;51.948;7.628;2022-08-21T08:34:29;10.97;;;9.77;;
3369;SDS011;42042;51.948;7.628;2022-08-21T08:36:56;14.87;;;10.10;;
3369;SDS011;42042;51.948;7.628;2022-08-21T08:39:24;13.13;;;10.33;;
3369;SDS011;42042;51.948;7.628;2022-08-21T08:41:52;13.67;;;9.37;;
3369;SDS011;42042;51.948;7.628;2022-08-21T08:44:23;14.47;;;10.13;;
3369;SDS011;42042;51.948;7.628;2022-08-21T08:46:51;12.23;;;10.40;;
3369;SDS011;42042;51.948;7.628;2022-08-21T08:49:19;18.17;;;12.27;;
3369;SDS011;42042;51.948;7.628;2022-08-21T08:51:50;14.07;;;10.73;;
3369;SDS011;42042;51.948;7.628;2022-08-21T08:54:21;15.90;;;9.10;;
3369;SDS011;42042;51.948;7.628;2022-08-21T08:56:56;17.63;;;10.70;;
3369;SDS011;42042;51.948;7.628;2022-08-21T08:59:25;14.53;;;10.47;;
3369;SDS011;42042;51.948;7.628;2022-08-21T09:01:54;13.70;;;9.53;;
3369;SDS011;42042;51.948;7.628;2022-08-21T09:04:23;14.63;;;9.00;;
3369;SDS011;42042;51.948;7.628;2022-08-21T09:07:05;18.83;;;8.00;;
3369;SDS011;42042;51.948;7.628;2022-08-21T09:09:39;14.03;;;8.23;;
3369;SDS011;42042;51.948;7.628;2022-08-21T09:12:09;14.17;;;9.33;;
3369;SDS011;42042;51.948;7.628;2022-08-21T09:14:41;17.83;;;10.37;;
3369;SDS011;42042;51.948;7.628;2022-08-21T09:17:12;11.60;;;8.87;;
3369;SDS011;42042;51.948;7.628;2022-08-21T09:19:46;17.97;;;9.00;;
3369;SDS011;42042;51.948;7.628;2022-08-21T09:22:23;12.80;;;8.57;;
3369;SDS011;42042;51.948;7.628;2022-08-21T09:24:53;10.60;;;7.10;;
3369;SDS011;42042;51.948;7.628;2022-08-21T09:27:23;11.47;;;6.93;;
3369;SDS011;42042;51.948;7.628;2022-08-21T09:29:52;11.50;;;5.33;;
3369;SDS011;42042;51.948;7.628;2022-08-21T09:32:23;13.93;;;5.40;;
3369;SDS011;42042;51.948;7.628;2022-08-21T09:34:55;6.10;;;3.90;;
3369;SDS011;42042;51.948;7.628;2022-08-21T09:37:24;6.17;;;3.50;;
3369;SDS011;42042;51.948;7.628;2022-08-21T09:39:51;6.10;;;4.00;;
3369;SDS011;42042;51.948;7.628;2022-08-21T09:42:23;13.77;;;4.33;;
3369;SDS011;42042;51.948;7.628;2022-08-21T09:45:03;6.50;;;4.20;;
3369;SDS011;42042;51.948;7.628;2022-08-21T09:47:31;10.60;;;3.90;;
3369;SDS011;42042;51.948;7.628;2022-08-21T09:50:06;6.77;;;4.03;;
3369;SDS011;42042;51.948;7.628;2022-08-21T09:52:41;8.17;;;3.63;;
3369;SDS011;42042;51.948;7.628;2022-08-21T09:55:13;6.50;;;3.50;;
3369;SDS011;42042;51.948;7.628;2022-08-21T09:58:02;6.73;;;3.90;;
3369;SDS011;42042;51.948;7.628;2022-08-21T10:00:29;7.70;;;3.00;;
3369;SDS011;42042;51.948;7.628;2022-08-21T10:03:07;13.27;;;4.53;;
3369;SDS011;42042;51.948;7.628;2022-08-21T10:05:34;6.40;;;3.77;;
3369;SDS011;42042;51.948;7.628;2022-08-21T10:08:03;6.60;;;3.63;;
3369;SDS011;42042;51.948;7.628;2022-08-21T10:10:31;4.13;;;3.10;;
3369;SDS011;42042;51.948;7.628;2022-08-21T10:13:01;8.20;;;3.50;;
3369;SDS011;42042;51.948;7.628;2022-08-21T10:15:33;8.30;;;4.00;;
3369;SDS011;42042;51.948;7.628;2022-08-21T10:18:02;5.87;;;3.40;;
3369;SDS011;42042;51.948;7.628;2022-08-21T10:20:34;7.87;;;3.83;;
3369;SDS011;42042;51.948;7.628;2022-08-21T10:23:08;6.87;;;4.33;;
3369;SDS011;42042;51.948;7.628;2022-08-21T10:25:44;9.90;;;4.20;;
3369;SDS011;42042;51.948;7.628;2022-08-21T10:28:16;10.00;;;4.07;;
3369;SDS011;42042;51.948;7.628;2022-08-21T10:30:46;7.90;;;4.17;;
3369;SDS011;42042;51.948;7.628;2022-08-21T10:33:19;7.60;;;3.43;;
3369;SDS011;42042;51.948;7.628;2022-08-21T10:35:50;4.60;;;3.27;;
3369;SDS011;42042;51.948;7.628;2022-08-21T10:41:11;5.37;;;3.63;;
3369;SDS011;42042;51.948;7.628;2022-08-21T10:43:44;5.83;;;2.90;;
3369;SDS011;42042;51.948;7.628;2022-08-21T10:46:17;3.70;;;2.50;;
3369;SDS011;42042;51.948;7.628;2022-08-21T10:48:50;6.17;;;3.03;;
3369;SDS011;42042;51.948;7.628;2022-08-21T10:51:23;5.10;;;3.27;;
3369;SDS011;42042;51.948;7.628;2022-08-21T10:53:55;5.93;;;3.13;;
3369;SDS011;42042;51.948;7.628;2022-08-21T10:56:24;6.83;;;3.70;;
3369;SDS011;42042;51.948;7.628;2022-08-21T10:59:05;9.50;;;3.00;;
3369;SDS011;42042;51.948;7.628;2022-08-21T11:01:38;7.03;;;2.90;;
3369;SDS011;42042;51.948;7.628;2022-08-21T11:04:09;3.87;;;2.73;;
3369;SDS011;42042;51.948;7.628;2022-08-21T11:06:39;6.10;;;2.87;;
3369;SDS011;42042;51.948;7.628;2022-08-21T11:09:09;5.60;;;2.77;;
3369;SDS011;42042;51.948;7.628;2022-08-21T11:11:41;3.93;;;1.97;;
3369;SDS011;42042;51.948;7.628;2022-08-21T11:14:13;3.50;;;1.90;;
3369;SDS011;42042;51.948;7.628;2022-08-21T11:16:45;5.90;;;2.33;;
3369;SDS011;42042;51.948;7.628;2022-08-21T11:19:13;3.70;;;2.20;;
3369;SDS011;42042;51.948;7.628;2022-08-21T11:21:43;2.23;;;2.00;;
3369;SDS011;42042;51.948;7.628;2022-08-21T11:24:21;2.47;;;2.00;;
3369;SDS011;42042;51.948;7.628;2022-08-21T11:26:54;2.93;;;2.23;;
3369;SDS011;42042;51.948;7.628;2022-08-21T11:29:26;4.37;;;2.30;;
3369;SDS011;42042;51.948;7.628;2022-08-21T11:32:20;3.03;;;2.20;;
3369;SDS011;42042;51.948;7.628;2022-08-21T11:34:53;2.80;;;1.83;;
3369;SDS011;42042;51.948;7.628;2022-08-21T11:37:25;4.93;;;2.73;;
3369;SDS011;42042;51.948;7.628;2022-08-21T11:40:00;4.30;;;2.30;;
3369;SDS011;42042;51.948;7.628;2022-08-21T11:42:32;2.30;;;2.13;;
3369;SDS011;42042;51.948;7.628;2022-08-21T11:45:08;5.63;;;2.13;;
3369;SDS011;42042;51.948;7.628;2022-08-21T11:47:43;4.27;;;2.80;;
3369;SDS011;42042;51.948;7.628;2022-08-21T11:50:13;5.57;;;2.90;;
3369;SDS011;42042;51.948;7.628;2022-08-21T11:52:41;2.97;;;2.10;;
3369;SDS011;42042;51.948;7.628;2022-08-21T11:55:11;5.40;;;2.57;;
3369;SDS011;42042;51.948;7.628;2022-08-21T11:57:45;2.73;;;2.30;;
3369;SDS011;42042;51.948;7.628;2022-08-21T12:00:16;4.90;;;2.50;;
3369;SDS011;42042;51.948;7.628;2022-08-21T12:02:46;5.93;;;3.23;;
3369;SDS011;42042;51.948;7.628;2022-08-21T12:05:22;3.37;;;2.00;;
3369;SDS011;42042;51.948;7.628;2022-08-21T12:07:59;5.20;;;2.07;;
3369;SDS011;42042;51.948;7.628;2022-08-21T12:10:31;2.33;;;2.13;;
3369;SDS011;42042;51.948;7.628;2022-08-21T12:13:06;3.83;;;1.90;;
3369;SDS011;42042;51.948;7.628;2022-08-21T12:15:35;3.43;;;2.17;;
3369;SDS011;42042;51.948;7.628;2022-08-21T12:18:03;3.80;;;1.73;;
3369;SDS011;42042;51.948;7.628;2022-08-21T12:20:35;3.73;;;1.70;;
3369;SDS011;42042;51.948;7.628;2022-08-21T12:23:04;3.43;;;2.00;;
3369;SDS011;42042;51.948;7.628;2022-08-21T12:25:36;4.27;;;2.23;;
3369;SDS011;42042;51.948;7.628;2022-08-21T12:28:07;2.90;;;1.70;;
3369;SDS011;42042;51.948;7.628;2022-08-21T12:30:36;4.57;;;2.07;;
3369;SDS011;42042;51.948;7.628;2022-08-21T12:33:04;1.87;;;1.63;;
3369;SDS011;42042;51.948;7.628;2022-08-21T12:35:33;3.73;;;2.03;;
3369;SDS011;42042;51.948;7.628;2022-08-21T12:38:06;3.10;;;1.90;;
3369;SDS011;42042;51.948;7.628;2022-08-21T12:40:37;5.83;;;2.00;;
3369;SDS011;42042;51.948;7.628;2022-08-21T12:43:11;4.70;;;2.00;;
3369;SDS011;42042;51.948;7.628;2022-08-21T12:45:40;7.30;;;2.07;;
3369;SDS011;42042;51.948;7.628;2022-08-21T12:48:09;2.20;;;1.60;;
3369;SDS011;42042;51.948;7.628;2022-08-21T12:50:39;2.93;;;1.70;;
3369;SDS011;42042;51.948;7.628;2022-08-21T12:53:09;2.80;;;1.60;;
3369;SDS011;42042;51.948;7.628;2022-08-21T12:55:40;2.90;;;1.60;;
3369;SDS011;42042;51.948;7.628;2022-08-21T12:58:17;3.30;;;1.80;;
3369;SDS011;42042;51.948;7.628;2022-08-21T13:00:47;7.20;;;2.13;;
3369;SDS011;42042;51.948;7.628;2022-08-21T13:03:15;1.87;;;1.37;;
3369;SDS011;42042;51.948;7.628;2022-08-21T13:05:43;3.60;;;2.00;;
3369;SDS011;42042;51.948;7.628;2022-08-21T13:08:11;2.73;;;2.40;;
3369;SDS011;42042;51.948;7.628;2022-08-21T13:10:39;4.93;;;1.70;;
3369;SDS011;42042;51.948;7.628;2022-08-21T13:13:08;4.40;;;2.00;;
3369;SDS011;42042;51.948;7.628;2022-08-21T13:15:38;6.73;;;2.03;;
3369;SDS011;42042;51.948;7.628;2022-08-21T13:18:06;7.43;;;2.10;;
3369;SDS011;42042;51.948;7.628;2022-08-21T13:20:35;3.97;;;2.33;;
3369;SDS011;42042;51.948;7.628;2022-08-21T13:23:03;2.90;;;1.90;;
3369;SDS011;42042;51.948;7.628;2022-08-21T13:25:34;3.07;;;1.67;;
3369;SDS011;42042;51.948;7.628;2022-08-21T13:28:04;4.60;;;1.80;;
3369;SDS011;42042;51.948;7.628;2022-08-21T13:30:32;7.37;;;2.03;;
3369;SDS011;42042;51.948;7.628;2022-08-21T13:33:01;11.97;;;5.33;;
3369;SDS011;42042;51.948;7.628;2022-08-21T13:35:34;4.33;;;2.63;;
3369;SDS011;42042;51.948;7.628;2022-08-21T13:38:03;2.83;;;2.20;;
3369;SDS011;42042;51.948;7.628;2022-08-21T13:40:40;3.87;;;2.10;;
3369;SDS011;42042;51.948;7.628;2022-08-21T13:43:10;2.23;;;1.90;;
3369;SDS011;42042;51.948;7.628;2022-08-21T13:45:38;6.00;;;2.30;;
3369;SDS011;42042;51.948;7.628;2022-08-21T13:48:07;3.20;;;2.60;;
3369;SDS011;42042;51.948;7.628;2022-08-21T13:50:35;3.23;;;2.13;;
3369;SDS011;42042;51.948;7.628;2022-08-21T13:53:04;3.43;;;2.90;;
3369;SDS011;42042;51.948;7.628;2022-08-21T13:55:36;4.60;;;2.43;;
3369;SDS011;42042;51.948;7.628;2022-08-21T13:58:03;5.50;;;1.93;;
3369;SDS011;42042;51.948;7.628;2022-08-21T14:00:32;5.00;;;2.20;;
3369;SDS011;42042;51.948;7.628;2022-08-21T14:03:03;12.33;;;7.80;;
3369;SDS011;42042;51.948;7.628;2022-08-21T14:05:34;3.97;;;2.40;;
3369;SDS011;42042;51.948;7.628;2022-08-21T14:08:03;2.10;;;1.67;;
3369;SDS011;42042;51.948;7.628;2022-08-21T14:10:31;7.70;;;6.20;;
3369;SDS011;42042;51.948;7.628;2022-08-21T14:13:01;3.70;;;1.90;;
3369;SDS011;42042;51.948;7.628;2022-08-21T14:15:29;1.90;;;1.70;;
3369;SDS011;42042;51.948;7.628;2022-08-21T14:18:06;2.33;;;2.13;;
3369;SDS011;42042;51.948;7.628;2022-08-21T14:20:35;2.43;;;1.80;;
3369;SDS011;42042;51.948;7.628;2022-08-21T14:23:03;2.07;;;1.80;;
3369;SDS011;42042;51.948;7.628;2022-08-21T14:25:36;4.43;;;2.20;;
3369;SDS011;42042;51.948;7.628;2022-08-21T14:28:07;2.80;;;1.70;;
3369;SDS011;42042;51.948;7.628;2022-08-21T14:30:35;5.07;;;2.00;;
3369;SDS011;42042;51.948;7.628;2022-08-21T14:33:04;4.73;;;2.20;;
3369;SDS011;42042;51.948;7.628;2022-08-21T14:35:31;3.00;;;2.07;;
3369;SDS011;42042;51.948;7.628;2022-08-21T14:38:00;2.13;;;1.87;;
3369;SDS011;42042;51.948;7.628;2022-08-21T14:40:27;4.90;;;2.10;;
3369;SDS011;42042;51.948;7.628;2022-08-21T14:42:54;2.33;;;2.13;;
3369;SDS011;42042;51.948;7.628;2022-08-21T14:45:24;5.93;;;2.70;;
3369;SDS011;42042;51.948;7.628;2022-08-21T14:47:52;4.20;;;2.17;;
3369;SDS011;42042;51.948;7.628;2022-08-21T14:50:19;3.10;;;2.00;;
3369;SDS011;42042;51.948;7.628;2022-08-21T14:52:47;3.93;;;2.00;;
3369;SDS011;42042;51.948;7.628;2022-08-21T14:55:16;3.30;;;2.00;;
3369;SDS011;42042;51.948;7.628;2022-08-21T14:57:44;4.50;;;2.20;;
3369;SDS011;42042;51.948;7.628;2022-08-21T15:00:13;4.67;;;2.07;;
3369;SDS011;42042;51.948;7.628;2022-08-21T15:02:41;4.70;;;2.57;;
3369;SDS011;42042;51.948;7.628;2022-08-21T15:05:08;2.90;;;1.80;;